Time;durP1;ratioP1;P1;durP2;ratioP2;P2;SDS_P1;SDS_P2;PMS_P1;PMS_P2;Temp;Humidity;BMP_temperature;BMP_pressure;BME280_temperature;BME280_humidity;BME280_pressure;Samples;Min_cycle;Max_cycle;Signal;HPM_P1;HPM_P2
2022/12/31 00:02:16;;;;;;;3.80;1.40;;;8.60;99.90;;;;;;5087364;28;20032;-59
2022/12/31 00:04:41;;;;;;;2.42;1.30;;;8.60;99.90;;;;;;5089171;28;20054;-60
2022/12/31 00:07:07;;;;;;;2.38;1.30;;;8.60;99.90;;;;;;5096933;28;20491;-60
2022/12/31 00:09:32;;;;;;;2.58;1.38;;;8.70;99.90;;;;;;5087715;28;20589;-56
2022/12/31 00:11:58;;;;;;;1.88;1.20;;;8.70;99.90;;;;;;5089427;28;20047;-56
2022/12/31 00:14:23;;;;;;;1.73;1.17;;;8.70;99.90;;;;;;5089643;28;20483;-57
2022/12/31 00:16:49;;;;;;;2.90;1.40;;;8.70;99.90;;;;;;5090747;28;20026;-53
2022/12/31 00:19:14;;;;;;;1.88;1.40;;;8.80;99.90;;;;;;5087069;28;20480;-54
2022/12/31 00:21:42;;;;;;;3.13;1.50;;;8.80;99.90;;;;;;5089246;28;20020;-52
2022/12/31 00:24:09;;;;;;;1.65;1.02;;;8.80;99.90;;;;;;5089400;28;20066;-54
2022/12/31 00:26:35;;;;;;;2.08;1.20;;;8.90;99.90;;;;;;5089887;28;20606;-54
2022/12/31 00:29:02;;;;;;;2.10;1.58;;;8.90;99.90;;;;;;5087023;28;20020;-56
2022/12/31 00:31:30;;;;;;;1.48;1.08;;;9.00;99.90;;;;;;5090306;28;20031;-53
2022/12/31 00:33:56;;;;;;;1.40;0.95;;;9.00;99.90;;;;;;5105847;28;20418;-54
2022/12/31 00:36:28;;;;;;;1.30;1.05;;;9.10;99.90;;;;;;5089172;28;20273;-54
2022/12/31 00:38:55;;;;;;;0.98;0.82;;;9.10;99.90;;;;;;5078353;28;20541;-57
2022/12/31 00:41:22;;;;;;;0.98;0.80;;;9.10;99.90;;;;;;5091575;28;20024;-55
2022/12/31 00:43:48;;;;;;;2.05;1.00;;;9.10;99.90;;;;;;5090942;28;20412;-56
2022/12/31 00:46:14;;;;;;;1.45;0.98;;;9.10;99.90;;;;;;5088573;28;20061;-56
2022/12/31 00:48:40;;;;;;;0.90;0.70;;;9.20;99.90;;;;;;5087904;28;20031;-55
2022/12/31 00:51:09;;;;;;;0.88;0.77;;;9.20;99.90;;;;;;5090713;28;20489;-55
2022/12/31 00:53:35;;;;;;;0.93;0.65;;;9.20;99.90;;;;;;5090136;28;20063;-56
2022/12/31 00:56:02;;;;;;;1.27;1.17;;;9.20;99.90;;;;;;5088473;28;20081;-50
2022/12/31 00:58:28;;;;;;;1.20;0.85;;;9.20;99.90;;;;;;5089778;28;20081;-54
2022/12/31 01:00:54;;;;;;;1.33;0.90;;;9.30;99.90;;;;;;5089376;28;20028;-53
2022/12/31 01:03:19;;;;;;;3.53;0.75;;;9.30;99.90;;;;;;5088313;28;20028;-52
2022/12/31 01:05:45;;;;;;;0.98;0.82;;;9.20;99.90;;;;;;5089723;28;20103;-55
2022/12/31 01:08:10;;;;;;;1.60;0.70;;;9.20;99.90;;;;;;5089660;28;20024;-54
2022/12/31 01:13:20;;;;;;;1.63;0.80;;;9.10;99.90;;;;;;5089638;28;20058;-53
2022/12/31 01:15:45;;;;;;;2.13;0.70;;;9.10;99.90;;;;;;5092231;28;20020;-55
2022/12/31 01:18:11;;;;;;;0.85;0.70;;;9.00;99.90;;;;;;5097614;28;20092;-55
2022/12/31 01:20:39;;;;;;;0.88;0.70;;;9.00;99.90;;;;;;5110237;28;20059;-56
2022/12/31 01:23:05;;;;;;;0.75;0.57;;;9.00;99.90;;;;;;5095730;28;20039;-56
2022/12/31 01:25:35;;;;;;;0.82;0.70;;;8.90;99.90;;;;;;5106460;28;20303;-55
2022/12/31 01:28:00;;;;;;;1.63;0.70;;;8.90;99.90;;;;;;5093772;28;20055;-55
2022/12/31 01:30:26;;;;;;;4.78;1.48;;;8.90;99.90;;;;;;5112557;28;20062;-55
2022/12/31 01:32:51;;;;;;;1.08;0.80;;;8.90;99.90;;;;;;5093943;28;20369;-55
2022/12/31 01:35:17;;;;;;;0.90;0.60;;;8.90;99.90;;;;;;5111258;28;20034;-50
2022/12/31 01:37:43;;;;;;;1.65;0.75;;;9.00;99.90;;;;;;5090676;28;20028;-55
2022/12/31 01:40:09;;;;;;;0.80;0.70;;;9.00;99.90;;;;;;5111631;28;20048;-56
2022/12/31 01:42:34;;;;;;;0.60;0.60;;;9.00;99.90;;;;;;5090524;28;20070;-53
2022/12/31 01:45:00;;;;;;;1.55;0.80;;;9.10;99.90;;;;;;5111497;28;20140;-54
2022/12/31 01:47:50;;;;;;;1.70;0.85;;;9.20;99.90;;;;;;5090495;28;20028;-52
2022/12/31 01:50:28;;;;;;;1.33;0.73;;;9.20;99.90;;;;;;5064212;28;20037;-56
2022/12/31 01:52:57;;;;;;;1.65;0.60;;;9.20;99.90;;;;;;5112032;28;20157;-53
2022/12/31 01:55:30;;;;;;;0.82;0.80;;;9.30;99.90;;;;;;5091631;28;20039;-54
2022/12/31 01:57:59;;;;;;;0.70;0.50;;;9.30;99.90;;;;;;5091901;28;20024;-56
2022/12/31 02:00:25;;;;;;;0.95;0.60;;;9.30;99.90;;;;;;5111822;28;20042;-55
2022/12/31 02:02:51;;;;;;;0.60;0.60;;;9.30;99.90;;;;;;5110178;28;20107;-54
2022/12/31 02:05:37;;;;;;;0.70;0.55;;;9.30;99.90;;;;;;5092085;28;20046;-54
2022/12/31 02:08:04;;;;;;;;;;;9.30;99.90;;;;;;5071662;28;20025;-56
2022/12/31 02:10:29;;;;;;;0.50;0.50;;;9.40;99.90;;;;;;5108548;28;19916;-55
2022/12/31 02:12:55;;;;;;;0.98;0.60;;;9.40;99.90;;;;;;5111728;28;20434;-56
2022/12/31 02:15:28;;;;;;;0.60;0.45;;;9.40;99.90;;;;;;5091819;28;20111;-57
2022/12/31 02:18:28;;;;;;;0.80;0.60;;;9.50;99.90;;;;;;5071229;28;20035;-55
2022/12/31 02:21:20;;;;;;;0.57;0.57;;;9.50;99.90;;;;;;5093102;28;20065;-55
2022/12/31 02:23:55;;;;;;;0.70;0.60;;;9.50;99.90;;;;;;5111708;28;20098;-53
2022/12/31 02:26:55;;;;;;;0.70;0.70;;;9.60;99.90;;;;;;5096302;28;20040;-54
2022/12/31 02:29:57;;;;;;;1.60;0.60;;;9.60;99.90;;;;;;5063135;28;20040;-54
2022/12/31 02:32:34;;;;;;;0.50;0.50;;;9.60;99.90;;;;;;5089027;28;20039;-57
2022/12/31 02:35:13;;;;;;;0.40;0.40;;;9.70;99.90;;;;;;5070783;28;20024;-53
2022/12/31 02:37:42;;;;;;;0.60;0.50;;;9.70;99.90;;;;;;5087338;28;20592;-53
2022/12/31 02:40:13;;;;;;;1.95;0.57;;;9.70;99.90;;;;;;5110961;28;20075;-54
2022/12/31 02:42:38;;;;;;;0.93;0.50;;;9.70;99.90;;;;;;5087304;28;20029;-57
2022/12/31 02:45:04;;;;;;;0.77;0.60;;;9.80;99.90;;;;;;5110266;28;20544;-53
2022/12/31 02:47:52;;;;;;;0.55;0.55;;;9.80;99.90;;;;;;5089256;28;20028;-54
2022/12/31 02:50:29;;;;;;;0.75;0.38;;;9.80;99.90;;;;;;5070432;28;20031;-52
2022/12/31 02:53:32;;;;;;;0.30;0.30;;;9.90;99.90;;;;;;5070350;28;20042;-56
2022/12/31 02:56:34;;;;;;;0.32;0.32;;;9.90;99.90;;;;;;5077070;28;20147;-55
2022/12/31 03:02:23;;;;;;;0.63;0.43;;;9.90;99.90;;;;;;5100820;28;20056;-55
2022/12/31 03:04:54;;;;;;;0.30;0.20;;;9.90;99.90;;;;;;5090612;28;20032;-56
2022/12/31 03:07:28;;;;;;;0.50;0.40;;;9.80;99.90;;;;;;5093110;28;20070;-53
2022/12/31 03:09:54;;;;;;;0.32;0.32;;;9.80;99.90;;;;;;5110150;28;20023;-55
2022/12/31 03:15:18;;;;;;;0.40;0.40;;;9.80;99.90;;;;;;5070193;28;20030;-54
2022/12/31 03:17:57;;;;;;;0.35;0.20;;;9.80;99.90;;;;;;5087272;28;20123;-55
2022/12/31 03:23:13;;;;;;;0.35;0.30;;;9.80;99.90;;;;;;5069811;28;20368;-54
2022/12/31 03:25:39;;;;;;;0.50;0.40;;;9.80;99.90;;;;;;5100545;28;20074;-56
2022/12/31 03:28:13;;;;;;;0.38;0.35;;;9.80;99.90;;;;;;5089950;28;20067;-54
2022/12/31 03:30:40;;;;;;;0.50;0.40;;;9.80;99.90;;;;;;5070991;28;20035;-57
2022/12/31 03:33:07;;;;;;;0.47;0.47;;;9.80;99.90;;;;;;5110281;28;20035;-56
2022/12/31 03:35:34;;;;;;;0.70;0.22;;;9.80;99.90;;;;;;5089035;28;20036;-55
2022/12/31 03:38:00;;;;;;;0.20;0.20;;;9.80;99.90;;;;;;5110232;28;20027;-55
2022/12/31 03:40:27;;;;;;;0.40;0.30;;;9.90;99.90;;;;;;5088235;28;20028;-56
2022/12/31 03:42:52;;;;;;;0.25;0.22;;;9.90;99.90;;;;;;5110128;28;20042;-55
2022/12/31 03:48:40;;;;;;;0.20;0.20;;;10.00;99.90;;;;;;5095386;28;20169;-57
2022/12/31 03:51:05;;;;;;;0.40;0.40;;;10.10;99.90;;;;;;5109847;28;20107;-55
2022/12/31 03:53:31;;;;;;;0.28;0.28;;;10.10;99.90;;;;;;5088074;28;20050;-54
2022/12/31 03:55:56;;;;;;;0.52;0.30;;;10.10;99.90;;;;;;5109723;28;20030;-57
2022/12/31 03:58:22;;;;;;;0.30;0.30;;;10.20;99.90;;;;;;5092938;28;20028;-57
2022/12/31 04:00:47;;;;;;;0.10;0.10;;;10.20;99.90;;;;;;5109686;28;20027;-54
2022/12/31 04:03:13;;;;;;;0.28;0.20;;;10.30;99.90;;;;;;5091767;28;20056;-55
2022/12/31 04:05:39;;;;;;;0.40;0.35;;;10.30;99.90;;;;;;5109651;28;20016;-54
2022/12/31 04:08:04;;;;;;;0.40;0.40;;;10.40;99.90;;;;;;5090595;28;20044;-54
2022/12/31 04:10:30;;;;;;;0.50;0.30;;;10.40;99.90;;;;;;5109575;28;20144;-52
2022/12/31 04:12:55;;;;;;;0.40;0.40;;;10.40;99.90;;;;;;5089364;28;20040;-49
2022/12/31 04:15:21;;;;;;;0.30;0.22;;;10.50;99.90;;;;;;5109598;28;20031;-51
2022/12/31 04:17:47;;;;;;;0.45;0.40;;;10.50;99.90;;;;;;5087812;28;20471;-51
2022/12/31 04:20:13;;;;;;;0.20;0.20;;;10.50;99.90;;;;;;5068756;28;20024;-51
2022/12/31 04:22:39;;;;;;;0.30;0.22;;;10.60;99.90;;;;;;5108183;28;20115;-55
2022/12/31 04:25:10;;;;;;;0.32;0.32;;;10.60;99.90;;;;;;5088253;28;20173;-49
2022/12/31 04:27:36;;;;;;;0.30;0.30;;;10.70;99.90;;;;;;5109273;28;20319;-54
2022/12/31 04:30:02;;;;;;;0.40;0.40;;;10.70;99.90;;;;;;5087268;28;20024;-52
2022/12/31 04:32:28;;;;;;;0.80;0.20;;;10.70;99.90;;;;;;5108473;28;20032;-50
2022/12/31 04:34:53;;;;;;;0.20;0.20;;;10.80;99.90;;;;;;5086240;28;20077;-50
2022/12/31 04:37:19;;;;;;;0.30;0.30;;;10.80;99.90;;;;;;5108535;28;20045;-53
2022/12/31 04:39:44;;;;;;;0.40;0.30;;;10.80;99.90;;;;;;5087573;28;20028;-51
2022/12/31 04:42:10;;;;;;;0.10;0.10;;;10.80;99.90;;;;;;5108229;28;20106;-51
2022/12/31 04:44:35;;;;;;;0.30;0.30;;;10.90;99.90;;;;;;5087407;28;20492;-53
2022/12/31 04:47:01;;;;;;;0.45;0.10;;;10.90;99.90;;;;;;5108317;28;20024;-53
2022/12/31 04:49:26;;;;;;;0.20;0.20;;;10.90;99.90;;;;;;5093745;28;20024;-50
2022/12/31 04:51:52;;;;;;;0.50;0.20;;;11.00;99.90;;;;;;5114934;28;20506;-47
2022/12/31 04:54:17;;;;;;;0.25;0.25;;;11.00;99.90;;;;;;5100028;28;20459;-51
2022/12/31 04:56:43;;;;;;;0.20;0.20;;;11.10;99.90;;;;;;5095844;28;20024;-51
2022/12/31 04:59:08;;;;;;;0.85;0.40;;;11.10;99.90;;;;;;5101600;28;20024;-55
2022/12/31 05:01:35;;;;;;;2.28;0.32;;;11.20;99.90;;;;;;5114897;28;20023;-54
2022/12/31 05:04:00;;;;;;;0.30;0.30;;;11.20;99.90;;;;;;5104046;28;20047;-50
2022/12/31 05:06:26;;;;;;;0.28;0.20;;;11.20;99.90;;;;;;5096047;28;20059;-51
2022/12/31 05:08:51;;;;;;;0.20;0.20;;;11.30;99.90;;;;;;5112896;28;20439;-54
2022/12/31 05:11:17;;;;;;;0.20;0.20;;;11.30;99.90;;;;;;5095745;28;20119;-51
2022/12/31 05:13:43;;;;;;;0.75;0.35;;;11.30;99.90;;;;;;5112835;27;20359;-49
2022/12/31 05:16:08;;;;;;;0.30;0.22;;;11.40;99.90;;;;;;5095510;28;20036;-54
2022/12/31 05:18:35;;;;;;;0.30;0.28;;;11.40;99.90;;;;;;5112973;28;20055;-54
2022/12/31 05:21:01;;;;;;;0.43;0.20;;;11.40;99.90;;;;;;5115593;28;20051;-53
2022/12/31 05:23:26;;;;;;;0.20;0.17;;;11.40;99.90;;;;;;5099135;28;20455;-54
2022/12/31 05:25:52;;;;;;;0.20;0.17;;;11.40;99.90;;;;;;5106287;28;20079;-51
2022/12/31 05:28:18;;;;;;;0.43;0.20;;;11.50;99.90;;;;;;5112643;28;20499;-54
2022/12/31 05:30:47;;;;;;;1.75;0.35;;;11.50;99.90;;;;;;5115456;28;20058;-53
2022/12/31 05:33:12;;;;;;;0.40;0.20;;;11.50;99.90;;;;;;5096778;28;20035;-53
2022/12/31 05:35:37;;;;;;;0.20;0.20;;;11.60;99.90;;;;;;5113550;28;20360;-53
2022/12/31 05:38:04;;;;;;;0.20;0.20;;;11.60;99.90;;;;;;5115580;28;20047;-52
2022/12/31 05:40:30;;;;;;;1.58;0.30;;;11.60;99.90;;;;;;5094038;28;20402;-55
2022/12/31 05:42:55;;;;;;;1.08;0.25;;;11.60;99.90;;;;;;5115549;28;20619;-53
2022/12/31 05:45:21;;;;;;;0.95;0.30;;;11.60;99.90;;;;;;5095552;28;20094;-53
2022/12/31 05:47:46;;;;;;;0.45;0.40;;;11.70;99.90;;;;;;5093282;28;20034;-51
2022/12/31 05:50:16;;;;;;;0.43;0.30;;;11.70;99.90;;;;;;5114763;28;20062;-54
2022/12/31 05:52:42;;;;;;;0.40;0.40;;;11.70;99.90;;;;;;5093224;28;20032;-53
2022/12/31 05:55:08;;;;;;;1.15;0.60;;;11.70;99.90;;;;;;5111185;28;20540;-51
2022/12/31 05:57:34;;;;;;;0.38;0.22;;;11.70;99.90;;;;;;5093578;28;20559;-53
2022/12/31 05:59:59;;;;;;;0.52;0.30;;;11.70;99.90;;;;;;5111333;28;20115;-54
2022/12/31 06:02:25;;;;;;;0.60;0.30;;;11.70;99.90;;;;;;5090432;28;20092;-51
2022/12/31 06:04:50;;;;;;;0.40;0.30;;;11.70;99.90;;;;;;5111311;28;20601;-51
2022/12/31 06:07:16;;;;;;;0.30;0.30;;;11.70;99.90;;;;;;5090324;28;20028;-50
2022/12/31 06:09:42;;;;;;;0.30;0.30;;;11.60;99.90;;;;;;5110025;28;20032;-54
2022/12/31 06:12:07;;;;;;;1.33;0.40;;;11.60;99.90;;;;;;5090155;28;20499;-49
2022/12/31 06:14:33;;;;;;;0.40;0.20;;;11.60;99.90;;;;;;5111183;28;20027;-51
2022/12/31 06:16:59;;;;;;;0.22;0.20;;;11.60;99.90;;;;;;5090120;28;20057;-51
2022/12/31 06:19:24;;;;;;;0.30;0.30;;;11.60;99.90;;;;;;5111080;28;20083;-55
2022/12/31 06:21:50;;;;;;;0.52;0.40;;;11.60;99.90;;;;;;5090198;28;20036;-53
2022/12/31 06:24:15;;;;;;;1.00;0.50;;;11.60;99.90;;;;;;5110890;28;20059;-55
2022/12/31 06:26:41;;;;;;;0.38;0.38;;;11.60;99.90;;;;;;5100264;28;20048;-49
2022/12/31 06:29:06;;;;;;;1.48;0.30;;;11.60;99.90;;;;;;5091650;28;20043;-49
2022/12/31 06:31:32;;;;;;;0.55;0.40;;;11.60;99.90;;;;;;5108771;28;20039;-51
2022/12/31 06:33:58;;;;;;;1.30;0.40;;;11.60;99.90;;;;;;5091553;28;20044;-54
2022/12/31 06:36:23;;;;;;;0.28;0.28;;;11.60;99.90;;;;;;5108592;28;20031;-54
2022/12/31 06:38:49;;;;;;;0.20;0.20;;;11.60;99.90;;;;;;5091519;28;20028;-51
2022/12/31 06:41:15;;;;;;;1.58;0.40;;;11.60;99.90;;;;;;5108704;28;20031;-52
2022/12/31 06:43:41;;;;;;;0.40;0.40;;;11.60;99.90;;;;;;5111282;28;20100;-54
2022/12/31 06:46:10;;;;;;;0.30;0.20;;;11.50;99.90;;;;;;5094899;28;20034;-51
2022/12/31 06:48:35;;;;;;;0.43;0.35;;;11.60;99.90;;;;;;5111454;28;20247;-52
2022/12/31 06:51:06;;;;;;;0.77;0.40;;;11.60;99.90;;;;;;5093996;28;20242;-51
2022/12/31 06:53:32;;;;;;;0.75;0.50;;;11.50;99.90;;;;;;5101207;28;20602;-53
2022/12/31 06:56:03;;;;;;;0.50;0.50;;;11.60;99.90;;;;;;5093008;28;20035;-52
2022/12/31 06:58:29;;;;;;;0.57;0.57;;;11.70;99.90;;;;;;5109732;28;20028;-54
2022/12/31 07:01:25;;;;;;;0.40;0.40;;;11.70;99.90;;;;;;5092901;28;20032;-54
2022/12/31 07:04:05;;;;;;;0.50;0.50;;;11.70;99.90;;;;;;5110930;28;20016;-54
2022/12/31 07:06:37;;;;;;;0.60;0.40;;;11.80;99.90;;;;;;5086204;28;20036;-51
2022/12/31 07:09:49;;;;;;;1.63;0.60;;;11.80;99.90;;;;;;5068934;28;20032;-54
2022/12/31 07:12:42;;;;;;;0.50;0.50;;;11.80;99.90;;;;;;5082090;28;20500;-51
2022/12/31 07:15:19;;;;;;;1.98;0.20;;;11.90;99.90;;;;;;5058847;28;20063;-52
2022/12/31 07:18:02;;;;;;;0.40;0.40;;;11.90;99.90;;;;;;5087632;28;20035;-52
2022/12/31 07:20:27;;;;;;;0.32;0.30;;;11.90;99.90;;;;;;5068285;28;20031;-49
2022/12/31 07:22:53;;;;;;;0.63;0.30;;;12.00;99.90;;;;;;5110488;28;20388;-51
2022/12/31 07:25:19;;;;;;;0.32;0.32;;;12.00;99.90;;;;;;5094392;28;20043;-54
2022/12/31 07:28:14;;;;;;;1.00;0.57;;;12.00;99.90;;;;;;5089214;28;20040;-52
2022/12/31 07:31:11;;;;;;;0.30;0.30;;;12.10;99.90;;;;;;5071626;28;20110;-51
2022/12/31 07:33:58;;;;;;;0.88;0.30;;;12.20;99.90;;;;;;5104301;28;20042;-51
2022/12/31 07:36:48;;;;;;;0.88;0.38;;;12.20;99.90;;;;;;5094718;28;20465;-52
2022/12/31 07:39:46;;;;;;;0.40;0.30;;;12.30;99.90;;;;;;5069739;28;20032;-50
2022/12/31 07:42:25;;;;;;;0.63;0.30;;;12.30;99.90;;;;;;5099434;28;20101;-51
2022/12/31 07:44:59;;;;;;;0.43;0.40;;;12.40;99.90;;;;;;5069622;28;20039;-51
2022/12/31 07:47:27;;;;;;;0.93;0.88;;;12.50;99.90;;;;;;5087957;28;20050;-57
2022/12/31 07:49:53;;;;;;;2.72;1.63;;;12.60;99.90;;;;;;5109488;28;20108;-53
2022/12/31 07:52:19;;;;;;;6.18;2.58;;;12.60;99.90;;;;;;5088211;28;20184;-51
2022/12/31 07:54:45;;;;;;;2.72;1.10;;;12.80;99.90;;;;;;5098531;28;20047;-52
2022/12/31 07:57:12;;;;;;;0.80;0.80;;;12.90;99.90;;;;;;5089383;28;20480;-53
2022/12/31 08:00:03;;;;;;;0.73;0.60;;;13.00;99.90;;;;;;5089895;28;20024;-54
2022/12/31 08:03:07;;;;;;;1.27;0.50;;;13.10;99.90;;;;;;5110011;28;20015;-55
2022/12/31 08:05:41;;;;;;;2.38;0.40;;;13.10;99.90;;;;;;5092917;28;20444;-54
2022/12/31 08:08:24;;;;;;;0.35;0.35;;;13.20;99.90;;;;;;5078771;28;20036;-51
2022/12/31 08:10:59;;;;;;;0.98;0.28;;;13.20;99.90;;;;;;5081422;28;20032;-53
2022/12/31 08:13:26;;;;;;;0.25;0.20;;;13.30;99.90;;;;;;5105608;28;20044;-51
2022/12/31 08:15:51;;;;;;;0.25;0.25;;;13.30;99.90;;;;;;5087709;28;20036;-51
2022/12/31 08:18:17;;;;;;;0.20;0.15;;;13.50;99.90;;;;;;5088005;28;20196;-52
2022/12/31 08:21:02;;;;;;;0.30;0.30;;;13.60;99.90;;;;;;5107412;28;20387;-55
2022/12/31 08:23:38;;;;;;;0.40;0.40;;;13.70;99.90;;;;;;5083953;28;20067;-52
2022/12/31 08:26:22;;;;;;;1.33;0.47;;;13.80;99.90;;;;;;5098065;28;20071;-54
2022/12/31 08:29:01;;;;;;;0.70;0.40;;;13.80;99.90;;;;;;5089226;28;20028;-53
2022/12/31 08:31:42;;;;;;;1.10;1.00;;;13.90;99.90;;;;;;5071174;28;20025;-50
2022/12/31 08:34:32;;;;;;;1.05;0.43;;;13.90;99.90;;;;;;5109295;28;20019;-54
2022/12/31 08:37:21;;;;;;;0.32;0.32;;;14.00;99.90;;;;;;5079079;28;20031;-51
2022/12/31 08:40:06;;;;;;;0.35;0.30;;;14.10;99.90;;;;;;5068583;28;20039;-55
2022/12/31 08:43:10;;;;;;;0.30;0.30;;;14.10;99.90;;;;;;5098053;28;20529;-55
2022/12/31 08:45:50;;;;;;;0.40;0.40;;;14.20;99.90;;;;;;5068693;28;20267;-55
2022/12/31 08:48:29;;;;;;;0.38;0.30;;;14.30;99.90;;;;;;5083787;28;20036;-55
2022/12/31 08:50:56;;;;;;;0.20;0.20;;;14.30;99.90;;;;;;5067194;28;20059;-53
2022/12/31 08:53:21;;;;;;;1.35;0.50;;;14.30;99.90;;;;;;5083784;28;20093;-55
2022/12/31 08:55:51;;;;;;;0.40;0.40;;;14.30;99.90;;;;;;5108954;28;20028;-55
2022/12/31 08:58:54;;;;;;;0.75;0.40;;;14.40;99.90;;;;;;5086295;28;20032;-53
2022/12/31 09:01:26;;;;;;;0.40;0.40;;;14.40;99.90;;;;;;5106072;28;20024;-51
2022/12/31 09:04:06;;;;;;;0.63;0.50;;;14.50;99.90;;;;;;5108825;28;20028;-55
2022/12/31 09:06:39;;;;;;;0.88;0.60;;;14.60;99.90;;;;;;5072057;28;20547;-54
2022/12/31 09:09:50;;;;;;;0.70;0.63;;;14.80;99.90;;;;;;5108813;28;20027;-52
2022/12/31 09:12:31;;;;;;;1.00;0.50;;;14.90;99.90;;;;;;5069749;28;20060;-52
2022/12/31 09:15:05;;;;;;;0.40;0.30;;;14.90;99.90;;;;;;5108759;28;20604;-52
2022/12/31 09:17:44;;;;;;;0.30;0.30;;;14.90;99.90;;;;;;5085124;28;20032;-49
2022/12/31 09:20:33;;;;;;;0.70;0.60;;;15.00;99.90;;;;;;5068555;28;20116;-53
2022/12/31 09:23:00;;;;;;;0.85;0.68;;;15.10;99.90;;;;;;5086603;28;20040;-53
2022/12/31 09:25:27;;;;;;;0.43;0.40;;;15.20;99.90;;;;;;5102903;28;20534;-51
2022/12/31 09:28:19;;;;;;;0.40;0.40;;;15.30;99.90;;;;;;5086909;28;20165;-53
2022/12/31 09:30:57;;;;;;;0.57;0.50;;;15.30;99.90;;;;;;5067328;28;20027;-60
2022/12/31 09:33:53;;;;;;;1.05;0.60;;;15.50;99.90;;;;;;5088518;28;20484;-56
2022/12/31 09:36:29;;;;;;;0.80;0.50;;;15.50;99.90;;;;;;5081736;28;20084;-54
2022/12/31 09:39:24;;;;;;;0.60;0.60;;;15.60;99.90;;;;;;5110468;28;20022;-56
2022/12/31 09:42:27;;;;;;;0.63;0.40;;;15.60;99.90;;;;;;5112828;28;20575;-54
2022/12/31 09:45:20;;;;;;;2.25;0.60;;;15.80;99.90;;;;;;5091058;28;20491;-57
2022/12/31 09:48:05;;;;;;;0.73;0.50;;;15.90;99.90;;;;;;5072088;28;20024;-56
2022/12/31 09:50:51;;;;;;;0.57;0.47;;;16.00;99.90;;;;;;5087593;28;20536;-56
2022/12/31 09:53:38;;;;;;;0.93;0.60;;;16.00;99.90;;;;;;5071910;28;20029;-56
2022/12/31 09:56:11;;;;;;;0.30;0.30;;;16.00;99.90;;;;;;5074579;28;20043;-57
2022/12/31 09:58:42;;;;;;;0.70;0.57;;;16.00;99.90;;;;;;5109844;28;20027;-54
2022/12/31 10:01:26;;;;;;;0.82;0.60;;;16.10;99.90;;;;;;5108576;28;20027;-57
2022/12/31 10:04:40;;;;;;;0.77;0.60;;;16.10;99.90;;;;;;5108001;28;20640;-55
2022/12/31 10:07:21;;;;;;;1.17;0.80;;;16.20;99.90;;;;;;5073057;28;20040;-56
2022/12/31 10:10:13;;;;;;;2.25;0.60;;;16.30;99.90;;;;;;5049000;28;20021;-58
2022/12/31 10:13:02;;;;;;;0.68;0.52;;;16.40;99.90;;;;;;5096527;28;20399;-57
2022/12/31 10:15:58;;;;;;;0.80;0.60;;;16.60;99.90;;;;;;5071380;28;20020;-53
2022/12/31 10:18:50;;;;;;;0.50;0.40;;;16.70;99.90;;;;;;5089923;28;20066;-55
2022/12/31 10:21:38;;;;;;;1.25;0.63;;;16.80;99.90;;;;;;5067714;28;20290;-54
2022/12/31 10:24:14;;;;;;;0.55;0.38;;;16.80;99.90;;;;;;5078936;28;20036;-55
2022/12/31 10:27:01;;;;;;;1.92;0.68;;;16.80;99.90;;;;;;5091911;28;20056;-55
2022/12/31 10:29:30;;;;;;;0.77;0.60;;;16.70;99.90;;;;;;5083957;28;20032;-55
2022/12/31 10:32:09;;;;;;;0.75;0.43;;;16.70;99.90;;;;;;5092769;28;20077;-55
2022/12/31 10:35:19;;;;;;;0.57;0.50;;;16.70;99.90;;;;;;5082136;28;20071;-55
2022/12/31 10:37:59;;;;;;;1.10;0.57;;;16.60;99.90;;;;;;5095345;28;20031;-56
2022/12/31 10:40:51;;;;;;;0.47;0.47;;;16.70;99.90;;;;;;5080168;28;20095;-55
2022/12/31 10:43:49;;;;;;;1.05;0.63;;;16.60;99.90;;;;;;5087273;28;20036;-56
2022/12/31 10:46:33;;;;;;;0.50;0.50;;;16.60;99.90;;;;;;5077520;28;20035;-51
2022/12/31 10:49:20;;;;;;;0.65;0.50;;;16.60;99.90;;;;;;5070484;28;20408;-51
2022/12/31 10:52:10;;;;;;;1.02;0.65;;;16.50;99.90;;;;;;5094765;28;20040;-54
2022/12/31 10:55:04;;;;;;;1.17;0.43;;;16.50;99.90;;;;;;5072119;28;20369;-54
2022/12/31 10:58:06;;;;;;;1.05;0.63;;;16.50;99.90;;;;;;5087731;28;20027;-54
2022/12/31 11:01:07;;;;;;;0.98;0.50;;;16.40;99.90;;;;;;5089633;28;20491;-55
2022/12/31 11:04:18;;;;;;;0.57;0.57;;;16.30;99.90;;;;;;5077955;28;20097;-54
2022/12/31 11:07:05;;;;;;;1.30;0.60;;;16.30;99.90;;;;;;5076222;28;20043;-57
2022/12/31 11:10:01;;;;;;;0.82;0.40;;;16.30;99.90;;;;;;5082202;28;20023;-55
2022/12/31 11:12:53;;;;;;;0.70;0.60;;;16.30;99.90;;;;;;5096368;28;20032;-53
2022/12/31 11:16:06;;;;;;;0.52;0.52;;;16.20;99.90;;;;;;5075992;28;20517;-56
2022/12/31 11:19:00;;;;;;;1.67;0.70;;;16.20;99.90;;;;;;5084116;28;20032;-55
2022/12/31 11:22:07;;;;;;;0.82;0.65;;;16.10;99.90;;;;;;5087945;28;20040;-55
2022/12/31 11:25:04;;;;;;;1.93;0.50;;;16.10;99.90;;;;;;5085089;28;20090;-55
2022/12/31 11:28:07;;;;;;;0.93;0.50;;;16.00;99.90;;;;;;5085738;28;20500;-56
2022/12/31 11:31:11;;;;;;;0.50;0.50;;;16.00;99.90;;;;;;5090918;28;20031;-55
2022/12/31 11:34:00;;;;;;;0.77;0.60;;;16.00;99.90;;;;;;5045211;28;20613;-55
2022/12/31 11:36:55;;;;;;;0.73;0.50;;;15.90;99.90;;;;;;5089907;28;20035;-56
2022/12/31 11:39:34;;;;;;;5.43;0.93;;;15.90;99.90;;;;;;5078123;28;20030;-52
2022/12/31 11:42:13;;;;;;;1.10;0.80;;;16.00;99.90;;;;;;5110098;28;20016;-55
2022/12/31 11:44:52;;;;;;;1.27;1.05;;;15.90;99.90;;;;;;5083658;28;20548;-56
2022/12/31 11:47:48;;;;;;;1.92;1.15;;;15.90;99.90;;;;;;5068562;28;20062;-56
2022/12/31 11:50:28;;;;;;;0.57;0.50;;;15.90;99.90;;;;;;5080750;28;20028;-56
2022/12/31 11:53:17;;;;;;;1.08;0.65;;;15.90;99.90;;;;;;5069537;28;20025;-53
2022/12/31 11:55:58;;;;;;;1.25;0.95;;;15.90;99.90;;;;;;5080636;28;20039;-55
2022/12/31 11:58:27;;;;;;;1.02;0.80;;;15.90;99.90;;;;;;5088725;28;20084;-55
2022/12/31 12:01:04;;;;;;;1.25;0.80;;;15.90;99.90;;;;;;5107714;28;20085;-54
2022/12/31 12:03:30;;;;;;;0.77;0.70;;;16.00;99.90;;;;;;5109734;28;20039;-55
2022/12/31 12:05:57;;;;;;;3.70;0.93;;;16.00;99.90;;;;;;5084947;28;20110;-56
2022/12/31 12:08:24;;;;;;;0.80;0.55;;;16.00;99.90;;;;;;5109840;28;20031;-56
2022/12/31 12:10:54;;;;;;;1.52;0.70;;;16.00;99.90;;;;;;5090188;28;20219;-55
2022/12/31 12:13:22;;;;;;;1.42;0.65;;;16.10;99.90;;;;;;5109896;28;20038;-56
2022/12/31 12:15:55;;;;;;;1.95;0.95;;;16.20;99.90;;;;;;5089899;28;20388;-54
2022/12/31 12:18:49;;;;;;;0.63;0.60;;;16.30;99.90;;;;;;5109843;28;20020;-56
2022/12/31 12:21:23;;;;;;;1.65;0.98;;;16.30;99.90;;;;;;5078805;28;20035;-57
2022/12/31 12:23:59;;;;;;;0.60;0.60;;;16.40;99.90;;;;;;5087210;28;20461;-56
2022/12/31 12:26:33;;;;;;;0.75;0.63;;;16.40;99.90;;;;;;5092515;28;20432;-56
2022/12/31 12:29:10;;;;;;;4.75;0.88;;;16.40;99.90;;;;;;5086346;28;20100;-56
2022/12/31 12:31:37;;;;;;;1.05;0.75;;;16.40;99.90;;;;;;5086823;28;20067;-55
2022/12/31 12:34:04;;;;;;;0.40;0.40;;;16.50;99.90;;;;;;5086391;28;20036;-54
2022/12/31 12:36:30;;;;;;;0.80;0.70;;;16.50;99.90;;;;;;5100664;28;20024;-54
2022/12/31 12:39:00;;;;;;;1.38;0.70;;;16.60;99.90;;;;;;5086916;28;20032;-56
2022/12/31 12:41:26;;;;;;;0.90;0.65;;;16.60;99.90;;;;;;5102094;28;20106;-55
2022/12/31 12:44:04;;;;;;;1.05;0.65;;;16.70;99.90;;;;;;5084365;28;20032;-55
2022/12/31 12:46:31;;;;;;;2.38;0.80;;;16.70;99.90;;;;;;5091994;28;20108;-55
2022/12/31 12:48:57;;;;;;;1.75;0.82;;;16.70;99.90;;;;;;5091154;28;20747;-56
2022/12/31 12:51:59;;;;;;;2.58;0.73;;;16.70;99.90;;;;;;5097329;28;20107;-56
2022/12/31 12:54:31;;;;;;;1.20;0.73;;;16.70;99.90;;;;;;5084076;28;20038;-55
2022/12/31 12:57:00;;;;;;;2.30;1.00;;;16.80;99.90;;;;;;5083787;28;20543;-54
2022/12/31 12:59:54;;;;;;;1.27;1.00;;;16.80;99.90;;;;;;5087794;28;20492;-56
2022/12/31 13:02:34;;;;;;;1.70;1.27;;;16.80;99.90;;;;;;5102399;28;20027;-56
2022/12/31 13:05:18;;;;;;;1.63;0.77;;;16.80;99.90;;;;;;5087275;28;20044;-52
2022/12/31 13:07:49;;;;;;;1.67;0.90;;;16.80;99.90;;;;;;5087467;28;20114;-55
2022/12/31 13:10:21;;;;;;;3.13;0.88;;;16.90;99.90;;;;;;5094140;28;20040;-55
2022/12/31 13:13:01;;;;;;;2.17;0.70;;;16.90;99.90;;;;;;5076464;28;20306;-56
2022/12/31 13:15:41;;;;;;;2.30;0.93;;;16.90;98.80;;;;;;5092744;28;20023;-61
2022/12/31 13:18:36;;;;;;;1.65;1.13;;;16.90;99.90;;;;;;5088753;28;20118;-61
2022/12/31 13:21:27;;;;;;;1.17;0.80;;;16.90;97.90;;;;;;5075849;28;20750;-61
2022/12/31 13:24:14;;;;;;;1.00;0.70;;;16.90;98.30;;;;;;5080978;28;20028;-59
2022/12/31 13:26:51;;;;;;;1.17;0.60;;;16.90;97.40;;;;;;5092608;28;20470;-61
2022/12/31 13:29:20;;;;;;;1.20;0.80;;;16.90;98.50;;;;;;5085502;28;20111;-61
2022/12/31 13:31:48;;;;;;;2.83;0.60;;;16.90;98.70;;;;;;5089589;28;20036;-61
2022/12/31 13:34:30;;;;;;;0.88;0.70;;;16.90;98.00;;;;;;5088646;28;20036;-61
2022/12/31 13:37:01;;;;;;;2.63;0.80;;;16.90;98.00;;;;;;5093490;28;20140;-61
2022/12/31 13:39:30;;;;;;;1.55;0.77;;;16.90;97.60;;;;;;5083351;28;20067;-60
2022/12/31 13:42:18;;;;;;;1.13;0.70;;;17.00;96.60;;;;;;5094624;28;20119;-61
2022/12/31 13:44:54;;;;;;;1.60;0.93;;;17.00;97.70;;;;;;5086476;28;20032;-61
2022/12/31 13:47:35;;;;;;;1.95;0.98;;;17.00;95.60;;;;;;5082226;28;20020;-61